createdAt,value
2023-05-25T00:00:18.995Z,15.50
2023-05-25T00:02:49.283Z,15.50
2023-05-25T00:05:18.435Z,15.60
2023-05-25T00:07:45.374Z,15.50
2023-05-25T00:10:12.770Z,15.50
2023-05-25T00:12:40.433Z,15.50
2023-05-25T00:15:07.713Z,15.40
2023-05-25T00:17:37.271Z,15.40
2023-05-25T00:20:07.480Z,15.40
2023-05-25T00:22:38.362Z,15.30
2023-05-25T00:25:06.551Z,15.30
2023-05-25T00:27:33.523Z,15.20
2023-05-25T00:30:00.487Z,15.10
2023-05-25T00:32:27.730Z,15.10
2023-05-25T00:34:55.399Z,15.10
2023-05-25T00:37:22.259Z,15.00
2023-05-25T00:39:49.849Z,15.00
2023-05-25T00:42:16.781Z,15.00
2023-05-25T00:44:44.008Z,15.00
2023-05-25T00:47:11.878Z,14.90
2023-05-25T00:49:38.986Z,14.90
2023-05-25T00:52:06.292Z,15.00
2023-05-25T00:54:35.215Z,15.00
2023-05-25T00:57:07.340Z,14.90
2023-05-25T00:59:51.892Z,14.90
2023-05-25T01:02:19.964Z,14.90
2023-05-25T01:04:53.888Z,14.90
2023-05-25T01:07:26.757Z,15.00
2023-05-25T01:10:02.417Z,14.90
2023-05-25T01:12:30.359Z,14.90
2023-05-25T01:14:58.006Z,14.80
2023-05-25T01:17:26.551Z,14.80
2023-05-25T01:20:08.915Z,14.80
2023-05-25T01:22:55.569Z,14.70
2023-05-25T01:25:27.692Z,14.70
2023-05-25T01:28:06.801Z,14.70
2023-05-25T01:30:37.914Z,14.80
2023-05-25T01:33:06.304Z,14.80
2023-05-25T01:35:36.643Z,14.80
2023-05-25T01:38:03.963Z,14.80
2023-05-25T01:40:30.843Z,14.80
2023-05-25T01:43:00.757Z,14.90
2023-05-25T01:45:28.250Z,14.90
2023-05-25T01:47:55.137Z,14.90
2023-05-25T01:50:29.783Z,14.90
2023-05-25T01:53:03.444Z,14.90
2023-05-25T01:55:34.774Z,14.90
2023-05-25T01:58:03.121Z,14.90
2023-05-25T02:00:34.154Z,15.00
2023-05-25T02:03:01.818Z,15.00
2023-05-25T02:05:28.773Z,15.00
2023-05-25T02:07:55.806Z,15.00
2023-05-25T02:10:22.661Z,15.00
2023-05-25T02:12:49.696Z,15.00
2023-05-25T02:15:18.001Z,15.00
2023-05-25T02:17:45.976Z,15.00
2023-05-25T02:20:13.485Z,14.90
2023-05-25T02:22:40.517Z,14.90
2023-05-25T02:25:09.077Z,14.90
2023-05-25T02:27:36.800Z,14.90
2023-05-25T02:30:04.142Z,14.80
2023-05-25T02:32:31.466Z,14.80
2023-05-25T02:34:58.494Z,14.80
2023-05-25T02:37:25.552Z,14.80
2023-05-25T02:39:52.433Z,14.70
2023-05-25T02:42:20.643Z,14.70
2023-05-25T02:44:48.765Z,14.70
2023-05-25T02:47:16.574Z,14.70
2023-05-25T02:49:43.825Z,14.70
2023-05-25T02:52:10.969Z,14.70
2023-05-25T02:54:38.052Z,14.60
2023-05-25T02:57:06.619Z,14.60
2023-05-25T02:59:33.560Z,14.50
2023-05-25T03:02:00.430Z,14.50
2023-05-25T03:04:28.545Z,14.50
2023-05-25T03:06:56.401Z,14.40
2023-05-25T03:09:23.226Z,14.40
2023-05-25T03:11:50.499Z,14.40
2023-05-25T03:14:20.406Z,14.40
2023-05-25T03:17:00.185Z,14.30
2023-05-25T03:19:27.735Z,14.30
2023-05-25T03:21:54.750Z,14.30
2023-05-25T03:24:21.604Z,14.30
2023-05-25T03:26:48.523Z,14.30
2023-05-25T03:29:16.616Z,14.30
2023-05-25T03:31:43.486Z,14.40
2023-05-25T03:34:10.658Z,14.40
2023-05-25T03:36:39.085Z,14.40
2023-05-25T03:39:07.224Z,14.40
2023-05-25T03:41:34.158Z,14.40
2023-05-25T03:44:01.014Z,14.40
2023-05-25T03:46:27.988Z,14.40
2023-05-25T03:48:57.419Z,14.40
2023-05-25T03:51:24.300Z,14.40
2023-05-25T03:53:51.364Z,14.40
2023-05-25T03:56:18.281Z,14.40
2023-05-25T03:58:45.129Z,14.50
2023-05-25T04:01:13.341Z,14.50
2023-05-25T04:03:40.717Z,14.50
2023-05-25T04:06:07.772Z,14.50
2023-05-25T04:08:34.954Z,14.50
2023-05-25T04:11:02.262Z,14.50
2023-05-25T04:13:29.150Z,14.50
2023-05-25T04:15:56.214Z,14.60
2023-05-25T04:18:27.634Z,14.60
2023-05-25T04:20:57.325Z,14.60
2023-05-25T04:23:24.642Z,14.60
2023-05-25T04:25:53.711Z,14.60
2023-05-25T04:28:20.779Z,14.60
2023-05-25T04:31:01.747Z,14.50
2023-05-25T04:33:38.611Z,14.50
2023-05-25T04:36:34.816Z,14.40
2023-05-25T04:39:05.816Z,14.40
2023-05-25T04:41:36.048Z,14.30
2023-05-25T04:44:09.808Z,14.20
2023-05-25T04:46:45.015Z,14.20
2023-05-25T04:49:21.511Z,14.20
2023-05-25T04:51:48.637Z,14.10
2023-05-25T04:54:15.894Z,14.10
2023-05-25T04:56:43.225Z,14.00
2023-05-25T04:59:10.363Z,14.00
2023-05-25T05:01:46.459Z,14.00
2023-05-25T05:04:16.731Z,14.00
2023-05-25T05:06:44.338Z,14.00
2023-05-25T05:09:17.599Z,14.00
2023-05-25T05:11:44.713Z,13.90
2023-05-25T05:14:13.800Z,13.90
2023-05-25T05:16:42.845Z,14.00
2023-05-25T05:19:10.034Z,14.00
2023-05-25T05:21:37.152Z,14.00
2023-05-25T05:24:06.330Z,14.00
2023-05-25T05:26:44.240Z,14.10
2023-05-25T05:29:20.342Z,14.10
2023-05-25T05:31:47.422Z,14.10
2023-05-25T05:34:14.430Z,14.20
2023-05-25T05:36:56.049Z,14.20
2023-05-25T05:39:24.883Z,14.20
2023-05-25T05:41:51.768Z,14.20
2023-05-25T05:44:26.835Z,14.30
2023-05-25T05:47:00.853Z,14.40
2023-05-25T05:49:29.428Z,14.40
2023-05-25T05:51:57.599Z,14.40
2023-05-25T05:54:24.673Z,14.40
2023-05-25T05:56:51.834Z,14.40
2023-05-25T05:59:18.801Z,14.40
2023-05-25T06:01:45.750Z,14.40
2023-05-25T06:04:13.528Z,14.40
2023-05-25T06:06:42.174Z,14.50
2023-05-25T06:09:09.498Z,14.60
2023-05-25T06:11:37.597Z,14.60
2023-05-25T06:14:04.724Z,14.70
2023-05-25T06:16:31.738Z,14.70
2023-05-25T06:18:58.653Z,14.70
2023-05-25T06:21:25.587Z,14.80
2023-05-25T06:23:52.682Z,14.90
2023-05-25T06:26:19.530Z,14.80
2023-05-25T06:28:47.741Z,14.80
2023-05-25T06:31:14.637Z,14.80
2023-05-25T06:33:41.626Z,14.70
2023-05-25T06:36:09.803Z,14.70
2023-05-25T06:38:37.015Z,14.60
2023-05-25T06:41:05.478Z,14.60
2023-05-25T06:43:32.959Z,14.50
2023-05-25T06:46:11.567Z,14.60
2023-05-25T06:48:39.369Z,14.60
2023-05-25T06:51:06.372Z,14.60
2023-05-25T06:53:33.300Z,14.50
2023-05-25T06:56:00.406Z,14.50
2023-05-25T06:58:27.429Z,14.50
2023-05-25T07:00:54.376Z,14.50
2023-05-25T07:03:21.953Z,14.60
2023-05-25T07:05:49.046Z,14.60
2023-05-25T07:08:16.231Z,14.60
2023-05-25T07:10:43.117Z,14.50
2023-05-25T07:13:11.279Z,14.40
2023-05-25T07:15:38.151Z,14.30
2023-05-25T07:18:05.130Z,14.20
2023-05-25T07:20:34.356Z,14.20
2023-05-25T07:23:01.354Z,14.30
2023-05-25T07:25:28.216Z,14.20
2023-05-25T07:27:55.295Z,14.30
2023-05-25T07:30:22.293Z,14.30
2023-05-25T07:32:49.180Z,14.30
2023-05-25T07:35:16.068Z,14.30
2023-05-25T07:37:42.947Z,14.40
2023-05-25T07:40:10.767Z,14.40
2023-05-25T07:42:37.695Z,14.40
2023-05-25T07:45:05.021Z,14.40
2023-05-25T07:47:31.930Z,14.50
2023-05-25T07:49:59.003Z,14.60
2023-05-25T07:52:25.890Z,14.70
2023-05-25T07:54:52.807Z,14.60
2023-05-25T07:57:19.731Z,14.70
2023-05-25T07:59:46.614Z,14.70
2023-05-25T08:02:13.535Z,14.70
2023-05-25T08:04:41.135Z,14.80
2023-05-25T08:07:08.329Z,14.80
2023-05-25T08:09:35.312Z,14.80
2023-05-25T08:12:24.144Z,14.70
2023-05-25T08:14:49.102Z,14.80
2023-05-25T08:17:16.033Z,14.90
2023-05-25T08:19:42.909Z,14.80
2023-05-25T08:22:09.808Z,15.00
2023-05-25T08:24:36.673Z,15.10
2023-05-25T08:27:03.676Z,15.20
2023-05-25T08:29:31.191Z,15.20
2023-05-25T08:31:58.038Z,15.20
2023-05-25T08:34:24.927Z,15.10
2023-05-25T08:36:51.796Z,15.30
2023-05-25T08:39:18.996Z,15.20
2023-05-25T08:41:46.268Z,15.20
2023-05-25T08:44:14.618Z,15.00
2023-05-25T08:46:41.855Z,15.00
2023-05-25T08:49:10.114Z,15.10
2023-05-25T08:51:39.200Z,15.00
2023-05-25T08:54:09.210Z,15.00
2023-05-25T08:56:42.185Z,15.10
2023-05-25T08:59:16.845Z,15.20
2023-05-25T09:01:46.571Z,15.20
2023-05-25T09:04:14.564Z,15.00
2023-05-25T09:06:41.608Z,15.30
2023-05-25T09:09:09.624Z,15.20
2023-05-25T09:11:39.974Z,15.20
2023-05-25T09:14:08.814Z,15.10
2023-05-25T09:16:37.830Z,15.00
2023-05-25T09:19:04.797Z,14.90
2023-05-25T09:21:31.704Z,14.90
2023-05-25T09:24:00.303Z,15.00
2023-05-25T09:26:27.602Z,14.80
2023-05-25T09:28:54.594Z,14.80
2023-05-25T09:31:24.148Z,14.80
2023-05-25T09:33:55.577Z,15.00
2023-05-25T09:36:23.398Z,15.10
2023-05-25T09:38:53.737Z,15.10
2023-05-25T09:41:21.910Z,15.10
2023-05-25T09:44:01.970Z,15.30
2023-05-25T09:46:39.482Z,15.30
2023-05-25T09:49:08.985Z,15.50
2023-05-25T09:51:36.716Z,15.50
2023-05-25T09:54:04.798Z,15.50
2023-05-25T09:56:35.513Z,15.50
2023-05-25T09:59:03.045Z,15.50
2023-05-25T10:01:32.083Z,15.60
2023-05-25T10:04:04.613Z,15.70
2023-05-25T10:06:33.370Z,15.80
2023-05-25T10:09:01.629Z,15.80
2023-05-25T10:11:29.603Z,15.80
2023-05-25T10:13:58.996Z,15.80
2023-05-25T10:16:29.565Z,15.80
2023-05-25T10:19:21.937Z,16.00
2023-05-25T10:22:01.433Z,15.90
2023-05-25T10:24:38.409Z,16.00
2023-05-25T10:27:22.487Z,16.00
2023-05-25T10:29:52.754Z,16.10
2023-05-25T10:32:19.781Z,16.10
2023-05-25T10:34:48.281Z,15.90
2023-05-25T10:37:16.097Z,16.10
2023-05-25T10:39:44.404Z,16.20
2023-05-25T10:42:13.415Z,16.00
2023-05-25T10:44:42.718Z,16.10
2023-05-25T10:47:10.395Z,16.20
2023-05-25T10:49:53.621Z,16.30
2023-05-25T10:52:21.366Z,16.20
2023-05-25T10:54:48.959Z,16.30
2023-05-25T10:57:20.702Z,16.40
2023-05-25T10:59:59.981Z,16.40
2023-05-25T11:02:30.359Z,16.40
2023-05-25T11:05:31.493Z,16.50
2023-05-25T11:08:00.080Z,16.60
2023-05-25T11:10:48.458Z,16.80
2023-05-25T11:13:40.972Z,16.80
2023-05-25T11:16:17.565Z,16.90
2023-05-25T11:18:57.530Z,16.80
2023-05-25T11:21:27.499Z,17.00
2023-05-25T11:23:58.462Z,17.10
2023-05-25T11:26:29.050Z,17.20
2023-05-25T11:28:59.002Z,17.00
2023-05-25T11:31:39.048Z,17.10
2023-05-25T11:34:09.414Z,17.20
2023-05-25T11:36:36.676Z,17.30
2023-05-25T11:39:11.561Z,17.50
2023-05-25T11:41:54.679Z,17.40
2023-05-25T11:44:33.608Z,17.40
2023-05-25T11:47:09.127Z,17.60
2023-05-25T11:49:41.931Z,17.60
2023-05-25T11:52:10.357Z,17.60
2023-05-25T11:54:41.143Z,17.60
2023-05-25T11:57:28.306Z,17.70
2023-05-25T12:00:00.216Z,17.80
2023-05-25T12:02:27.270Z,17.70
2023-05-25T12:04:59.405Z,17.50
2023-05-25T12:07:28.397Z,17.60
2023-05-25T12:10:07.936Z,17.70
2023-05-25T12:12:42.339Z,17.70
2023-05-25T12:15:11.965Z,17.70
2023-05-25T12:17:42.991Z,17.70
2023-05-25T12:20:11.799Z,17.70
2023-05-25T12:22:42.678Z,17.70
2023-05-25T12:25:11.490Z,17.80
2023-05-25T12:27:40.220Z,17.60
2023-05-25T12:30:09.418Z,17.50
2023-05-25T12:32:55.574Z,17.70
2023-05-25T12:35:22.676Z,17.80
2023-05-25T12:37:49.557Z,17.80
2023-05-25T12:40:18.250Z,17.80
2023-05-25T12:42:45.606Z,18.00
2023-05-25T12:45:12.534Z,18.20
2023-05-25T12:47:39.517Z,18.40
2023-05-25T12:50:14.573Z,18.30
2023-05-25T12:52:44.210Z,18.30
2023-05-25T12:55:33.079Z,18.20
2023-05-25T12:58:02.239Z,18.20
2023-05-25T13:00:39.753Z,18.10
2023-05-25T13:03:07.998Z,18.10
2023-05-25T13:05:37.117Z,18.20
2023-05-25T13:08:05.627Z,18.00
2023-05-25T13:10:33.709Z,18.00
2023-05-25T13:13:01.194Z,18.00
2023-05-25T13:15:28.765Z,17.90
2023-05-25T13:17:58.420Z,17.60
2023-05-25T13:20:27.105Z,17.70
2023-05-25T13:22:55.902Z,18.10
2023-05-25T13:25:23.403Z,17.80
2023-05-25T13:27:52.825Z,17.80
2023-05-25T13:30:22.116Z,18.10
2023-05-25T13:32:51.434Z,18.30
2023-05-25T13:35:23.499Z,18.20
2023-05-25T13:37:51.351Z,18.20
2023-05-25T13:40:19.132Z,18.30
2023-05-25T13:42:48.671Z,18.30
2023-05-25T13:45:15.516Z,18.00
2023-05-25T13:47:44.085Z,18.00
2023-05-25T13:50:11.784Z,17.90
2023-05-25T13:52:38.739Z,17.70
2023-05-25T13:55:06.275Z,17.70
2023-05-25T13:57:33.217Z,17.70
2023-05-25T14:00:00.029Z,18.00
2023-05-25T14:02:27.115Z,18.30
2023-05-25T14:04:54.056Z,18.40
2023-05-25T14:07:20.909Z,18.40
2023-05-25T14:09:47.746Z,18.10
2023-05-25T14:12:14.628Z,18.20
2023-05-25T14:14:41.506Z,18.60
2023-05-25T14:17:08.453Z,18.70
2023-05-25T14:19:35.467Z,18.50
2023-05-25T14:24:32.198Z,18.70
2023-05-25T14:26:59.272Z,18.90
2023-05-25T14:29:26.135Z,19.20
2023-05-25T14:31:53.190Z,19.50
2023-05-25T14:34:20.213Z,19.60
2023-05-25T14:36:47.058Z,19.70
2023-05-25T14:39:16.481Z,19.80
2023-05-25T14:41:44.231Z,19.80
2023-05-25T14:44:11.259Z,20.20
2023-05-25T14:46:38.202Z,20.20
2023-05-25T14:49:05.131Z,20.00
2023-05-25T14:51:31.999Z,19.70
2023-05-25T14:54:00.532Z,19.30
2023-05-25T14:56:28.414Z,19.10
2023-05-25T14:58:55.313Z,18.70
2023-05-25T15:01:25.100Z,18.30
2023-05-25T15:03:52.556Z,18.30
2023-05-25T15:06:19.737Z,18.10
2023-05-25T15:08:46.784Z,18.10
2023-05-25T15:11:13.748Z,18.20
2023-05-25T15:13:41.039Z,18.50
2023-05-25T15:16:11.891Z,18.70
2023-05-25T15:18:38.959Z,19.10
2023-05-25T15:21:06.302Z,18.80
2023-05-25T15:23:33.242Z,18.80
2023-05-25T15:26:07.819Z,18.80
2023-05-25T15:28:34.908Z,19.10
2023-05-25T15:31:03.082Z,19.20
2023-05-25T15:33:49.526Z,19.40
2023-05-25T15:36:20.195Z,19.30
2023-05-25T15:38:49.255Z,19.70
2023-05-25T15:41:17.192Z,20.10
2023-05-25T15:43:52.611Z,20.40
2023-05-25T15:46:19.781Z,20.60
2023-05-25T15:48:46.696Z,20.50
2023-05-25T15:51:13.572Z,20.60
2023-05-25T15:53:40.501Z,21.00
2023-05-25T15:56:07.404Z,21.20
2023-05-25T15:58:34.696Z,21.40
2023-05-25T16:01:02.633Z,21.60
2023-05-25T16:03:29.874Z,21.40
2023-05-25T16:05:57.212Z,21.60
2023-05-25T16:08:24.210Z,21.80
2023-05-25T16:10:51.122Z,21.50
2023-05-25T16:13:17.980Z,21.40
2023-05-25T16:15:45.069Z,21.20
2023-05-25T16:18:12.162Z,21.40
2023-05-25T16:20:39.107Z,21.70
2023-05-25T16:23:06.483Z,21.70
2023-05-25T16:25:33.395Z,21.50
2023-05-25T16:28:00.290Z,21.60
2023-05-25T16:30:27.089Z,21.50
2023-05-25T16:32:54.046Z,21.70
2023-05-25T16:35:21.149Z,22.00
2023-05-25T16:37:47.960Z,22.10
2023-05-25T16:40:14.942Z,22.20
2023-05-25T16:42:41.851Z,22.30
2023-05-25T16:45:09.107Z,22.20
2023-05-25T16:47:36.026Z,22.00
2023-05-25T16:50:03.001Z,21.90
2023-05-25T16:52:29.866Z,22.00
2023-05-25T16:54:59.036Z,21.90
2023-05-25T16:57:26.116Z,21.60
2023-05-25T16:59:53.796Z,21.30
2023-05-25T17:02:20.865Z,21.10
2023-05-25T17:04:47.754Z,20.80
2023-05-25T17:07:14.687Z,20.40
2023-05-25T17:09:41.526Z,20.10
2023-05-25T17:12:08.621Z,20.00
2023-05-25T17:14:35.816Z,19.80
2023-05-25T17:17:02.656Z,19.80
2023-05-25T17:19:29.701Z,19.80
2023-05-25T17:21:56.610Z,19.80
2023-05-25T17:24:23.426Z,19.80
2023-05-25T17:26:51.501Z,19.90
2023-05-25T17:29:18.393Z,20.10
2023-05-25T17:31:47.044Z,20.00
2023-05-25T17:34:16.166Z,20.10
2023-05-25T17:36:43.320Z,20.20
2023-05-25T17:39:12.541Z,20.20
2023-05-25T17:41:39.399Z,20.10
2023-05-25T17:44:06.479Z,20.10
2023-05-25T17:46:33.701Z,20.00
2023-05-25T17:49:01.859Z,19.80
2023-05-25T17:51:28.698Z,19.60
2023-05-25T17:53:56.302Z,19.10
2023-05-25T17:56:23.244Z,19.10
2023-05-25T17:58:50.097Z,18.90
2023-05-25T18:01:17.192Z,18.60
2023-05-25T18:03:44.281Z,18.30
2023-05-25T18:06:11.276Z,18.20
2023-05-25T18:08:38.112Z,18.00
2023-05-25T18:11:06.201Z,17.80
2023-05-25T18:13:33.021Z,17.60
2023-05-25T18:15:59.830Z,17.30
2023-05-25T18:18:26.837Z,16.90
2023-05-25T18:20:53.735Z,16.60
2023-05-25T18:23:22.163Z,16.20
2023-05-25T18:25:49.052Z,16.10
2023-05-25T18:28:16.032Z,15.80
2023-05-25T18:30:43.058Z,15.60
2023-05-25T18:33:10.734Z,15.30
2023-05-25T18:35:38.305Z,15.10
2023-05-25T18:38:06.559Z,15.10
2023-05-25T18:40:33.551Z,15.00
2023-05-25T18:43:00.405Z,14.90
2023-05-25T18:45:27.296Z,14.90
2023-05-25T18:47:54.435Z,14.70
2023-05-25T18:50:21.614Z,14.60
2023-05-25T18:52:51.114Z,14.40
2023-05-25T18:55:18.929Z,14.30
2023-05-25T18:57:45.848Z,14.20
2023-05-25T19:00:13.462Z,14.10
2023-05-25T19:02:40.913Z,14.00
2023-05-25T19:05:08.566Z,13.90
2023-05-25T19:07:44.138Z,13.60
2023-05-25T19:10:18.062Z,13.50
2023-05-25T19:12:45.033Z,13.40
2023-05-25T19:15:11.930Z,13.30
2023-05-25T19:17:38.840Z,13.20
2023-05-25T19:20:06.807Z,13.00
2023-05-25T19:22:33.786Z,13.00
2023-05-25T19:25:01.404Z,12.90
2023-05-25T19:27:28.444Z,12.80
2023-05-25T19:29:55.289Z,12.70
2023-05-25T19:32:22.234Z,12.60
2023-05-25T19:34:49.153Z,12.50
2023-05-25T19:37:16.010Z,12.50
2023-05-25T19:39:42.896Z,12.40
2023-05-25T19:42:09.792Z,12.30
2023-05-25T19:44:36.879Z,12.30
2023-05-25T19:47:03.762Z,12.20
2023-05-25T19:49:30.812Z,12.20
2023-05-25T19:51:57.675Z,12.10
2023-05-25T19:54:24.510Z,12.10
2023-05-25T19:56:52.035Z,12.00
2023-05-25T19:59:18.946Z,11.90
2023-05-25T20:01:45.930Z,11.90
2023-05-25T20:04:13.132Z,11.80
2023-05-25T20:06:40.035Z,11.70
2023-05-25T20:09:07.175Z,11.70
2023-05-25T20:11:34.040Z,11.60
2023-05-25T20:14:00.896Z,11.60
2023-05-25T20:16:28.157Z,11.50
2023-05-25T20:18:55.006Z,11.50
2023-05-25T20:21:21.950Z,11.40
2023-05-25T20:23:48.846Z,11.40
2023-05-25T20:26:15.764Z,11.30
2023-05-25T20:28:42.753Z,11.30
2023-05-25T20:31:09.726Z,11.30
2023-05-25T20:33:36.612Z,11.20
2023-05-25T20:36:03.441Z,11.20
2023-05-25T20:38:30.290Z,11.20
2023-05-25T20:40:57.180Z,11.10
2023-05-25T20:43:24.008Z,11.10
2023-05-25T20:45:50.908Z,11.00
2023-05-25T20:48:18.001Z,11.00
2023-05-25T20:50:44.857Z,11.00
2023-05-25T20:53:11.953Z,11.00
2023-05-25T20:55:38.798Z,10.90
2023-05-25T20:58:05.720Z,10.90
2023-05-25T21:00:32.538Z,10.90
2023-05-25T21:02:59.480Z,10.90
2023-05-25T21:05:27.601Z,10.80
2023-05-25T21:07:54.462Z,10.80
2023-05-25T21:10:21.301Z,10.80
2023-05-25T21:12:48.137Z,10.70
2023-05-25T21:15:14.976Z,10.70
2023-05-25T21:17:41.862Z,10.70
2023-05-25T21:20:09.122Z,10.70
2023-05-25T21:22:36.518Z,10.60
2023-05-25T21:25:04.673Z,10.60
2023-05-25T21:27:31.490Z,10.60
2023-05-25T21:29:58.345Z,10.60
2023-05-25T21:32:25.466Z,10.50
2023-05-25T21:34:53.015Z,10.50
2023-05-25T21:37:20.220Z,10.50
2023-05-25T21:39:47.109Z,10.50
2023-05-25T21:42:13.938Z,10.50
2023-05-25T21:44:40.763Z,10.50
2023-05-25T21:47:07.695Z,10.50
2023-05-25T21:49:34.652Z,10.50
2023-05-25T21:52:01.523Z,10.50
2023-05-25T21:54:28.335Z,10.50
2023-05-25T21:56:55.337Z,10.50
2023-05-25T21:59:22.268Z,10.50
2023-05-25T22:01:49.136Z,10.50
2023-05-25T22:04:16.243Z,10.50
2023-05-25T22:06:43.095Z,10.50
2023-05-25T22:09:09.933Z,10.50
2023-05-25T22:11:37.473Z,10.50
2023-05-25T22:14:04.550Z,10.50
2023-05-25T22:16:31.567Z,10.50
2023-05-25T22:18:59.046Z,10.50
2023-05-25T22:21:26.095Z,10.50
2023-05-25T22:23:52.953Z,10.40
2023-05-25T22:26:19.806Z,10.40
2023-05-25T22:28:46.632Z,10.40
2023-05-25T22:31:13.617Z,10.40
2023-05-25T22:33:40.467Z,10.40
2023-05-25T22:36:07.446Z,10.40
2023-05-25T22:38:34.256Z,10.30
2023-05-25T22:41:01.144Z,10.30
2023-05-25T22:43:28.010Z,10.30
2023-05-25T22:45:54.854Z,10.20
2023-05-25T22:48:21.874Z,10.20
2023-05-25T22:50:48.684Z,10.20
2023-05-25T22:53:15.608Z,10.20
2023-05-25T22:55:43.614Z,10.20
2023-05-25T22:58:11.385Z,10.20
2023-05-25T23:00:38.228Z,10.20
2023-05-25T23:03:05.244Z,10.20
2023-05-25T23:05:32.169Z,10.20
2023-05-25T23:07:59.527Z,10.20
2023-05-25T23:10:26.456Z,10.20
2023-05-25T23:12:54.698Z,10.20
2023-05-25T23:15:22.435Z,10.20
2023-05-25T23:17:49.395Z,10.20
2023-05-25T23:20:16.416Z,10.20
2023-05-25T23:22:43.546Z,10.10
2023-05-25T23:25:10.771Z,10.10
2023-05-25T23:27:37.933Z,10.10
2023-05-25T23:30:08.139Z,10.10
2023-05-25T23:32:36.525Z,10.10
2023-05-25T23:35:04.086Z,10.10
2023-05-25T23:37:30.938Z,10.10
2023-05-25T23:39:57.767Z,10.00
2023-05-25T23:42:26.750Z,10.10
2023-05-25T23:44:53.586Z,10.10
2023-05-25T23:47:20.449Z,10.10
2023-05-25T23:49:47.288Z,10.10
2023-05-25T23:52:14.167Z,10.10
2023-05-25T23:54:41.034Z,10.10
2023-05-25T23:57:07.866Z,10.10
2023-05-25T23:59:34.725Z,10.20
